Time;durP1;ratioP1;P1;durP2;ratioP2;P2;SDS_P1;SDS_P2;PMS_P1;PMS_P2;Temp;Humidity;BMP_temperature;BMP_pressure;BME280_temperature;BME280_humidity;BME280_pressure;Samples;Min_cycle;Max_cycle;Signal;HPM_P1;HPM_P2
2021/09/16 00:01:31;;;;;;;12.18;10.88;;;21.10;76.60;;;21.15;60.63;94764.53;5012596;28;20278;-79
2021/09/16 00:03:59;;;;;;;11.27;10.18;;;21.10;76.70;;;21.15;60.66;94759.22;5012939;28;20215;-79
2021/09/16 00:06:26;;;;;;;10.95;9.85;;;21.00;76.50;;;21.13;60.31;94752.53;4999533;28;20262;-79
2021/09/16 00:08:54;;;;;;;10.85;9.80;;;21.00;76.50;;;21.18;60.40;94755.22;5032390;28;20478;-80
2021/09/16 00:11:21;;;;;;;11.10;10.00;;;21.10;76.60;;;21.20;60.86;94763.75;5032391;28;20335;-79
2021/09/16 00:13:49;;;;;;;10.82;9.82;;;21.10;76.70;;;21.20;60.56;94761.09;5027426;28;20669;-79
2021/09/16 00:16:16;;;;;;;11.70;10.50;;;21.20;76.60;;;21.16;60.50;94760.81;5030086;28;21499;-79
2021/09/16 00:18:43;;;;;;;10.60;9.50;;;21.20;76.70;;;21.17;60.55;94770.41;5013785;28;20632;-79
2021/09/16 00:21:11;;;;;;;12.43;9.65;;;21.10;76.50;;;21.15;60.52;94761.88;4995967;28;20589;-79
2021/09/16 00:23:38;;;;;;;11.30;8.77;;;21.10;76.60;;;21.14;60.37;94768.28;5029159;28;20207;-79
2021/09/16 00:26:05;;;;;;;10.70;9.70;;;21.00;76.20;;;21.13;60.86;94763.19;5028272;28;20694;-78
2021/09/16 00:28:33;;;;;;;11.75;10.65;;;21.10;76.60;;;21.11;60.74;94769.59;5031080;28;20307;-79
2021/09/16 00:31:00;;;;;;;11.75;9.98;;;21.10;76.50;;;21.05;60.42;94759.19;5031994;28;20239;-79
2021/09/16 00:33:28;;;;;;;11.13;9.85;;;21.00;76.50;;;21.05;60.45;94769.84;5013561;28;20579;-78
2021/09/16 00:35:55;;;;;;;11.13;10.02;;;21.10;76.60;;;21.03;60.99;94778.13;4995812;28;20691;-79
2021/09/16 00:38:22;;;;;;;11.18;10.07;;;21.00;76.50;;;21.01;61.44;94777.56;5025214;28;20204;-79
2021/09/16 00:40:49;;;;;;;10.07;9.18;;;21.00;76.60;;;20.97;60.97;94767.69;5015444;28;20243;-79
2021/09/16 00:43:16;;;;;;;11.40;10.10;;;21.00;76.70;;;20.98;61.45;94772.75;5022662;28;20607;-79
2021/09/16 00:45:44;;;;;;;12.02;10.10;;;21.00;76.70;;;20.97;61.04;94773.00;5012057;28;20638;-78
2021/09/16 00:48:11;;;;;;;12.57;10.50;;;21.00;76.70;;;20.93;61.14;94759.41;5034455;28;20666;-79
2021/09/16 00:50:38;;;;;;;10.60;9.60;;;21.00;76.80;;;20.98;61.35;94766.63;5014758;28;20334;-78
2021/09/16 00:53:07;;;;;;;11.00;9.90;;;20.90;76.70;;;20.97;60.83;94770.34;5031492;28;20687;-79
2021/09/16 00:55:37;;;;;;;11.27;9.90;;;21.00;76.90;;;20.99;61.00;94777.03;5015215;28;20212;-79
2021/09/16 00:58:07;;;;;;;12.63;10.23;;;20.90;76.80;;;20.95;61.09;94768.75;5014418;28;20275;-79
2021/09/16 01:00:36;;;;;;;11.23;10.13;;;21.00;77.00;;;20.95;61.59;94773.28;5014642;28;20243;-78
2021/09/16 01:03:03;;;;;;;10.63;9.60;;;20.90;76.90;;;20.95;61.39;94770.63;5007703;28;20220;-79
2021/09/16 01:05:30;;;;;;;10.68;9.68;;;20.90;76.90;;;20.94;61.50;94772.47;5016319;28;20223;-78
2021/09/16 01:07:59;;;;;;;12.80;9.80;;;20.90;76.80;;;20.92;61.60;94771.94;5022302;28;20304;-77
2021/09/16 01:10:28;;;;;;;10.52;9.18;;;20.90;76.90;;;20.92;61.47;94774.59;5014959;28;20228;-78
2021/09/16 01:12:55;;;;;;;9.90;8.90;;;20.90;76.80;;;20.88;61.44;94762.84;5018666;28;20654;-78
2021/09/16 01:15:22;;;;;;;10.00;8.90;;;20.90;76.80;;;20.94;61.19;94775.13;5004742;28;20859;-77
2021/09/16 01:17:49;;;;;;;10.32;9.32;;;20.90;76.80;;;20.92;60.81;94771.13;5002428;28;20188;-78
2021/09/16 01:20:17;;;;;;;10.40;8.85;;;20.90;76.80;;;20.93;61.07;94778.06;5003052;28;20224;-77
2021/09/16 01:22:45;;;;;;;9.25;8.30;;;20.90;76.70;;;20.88;61.28;94772.72;5011296;28;20196;-78
2021/09/16 01:25:13;;;;;;;9.32;8.43;;;20.90;76.70;;;20.90;60.96;94776.72;5004465;28;20208;-77
2021/09/16 01:27:40;;;;;;;8.95;8.10;;;20.90;76.70;;;20.88;61.09;94773.50;5004824;28;20283;-77
2021/09/16 01:30:08;;;;;;;9.50;8.48;;;20.80;76.70;;;20.88;60.92;94780.72;5004164;28;20221;-78
2021/09/16 01:32:36;;;;;;;10.10;9.00;;;20.90;76.70;;;20.86;61.07;94786.31;5030645;28;20692;-79
2021/09/16 01:35:04;;;;;;;8.85;8.05;;;20.90;76.80;;;20.85;60.98;94781.22;5001955;28;20444;-77
2021/09/16 01:37:31;;;;;;;9.43;8.45;;;20.80;76.70;;;20.84;60.56;94780.44;4994303;28;20224;-79
2021/09/16 01:39:58;;;;;;;10.18;9.10;;;20.80;76.80;;;20.83;61.12;94783.38;5011454;28;20208;-79
2021/09/16 01:42:26;;;;;;;11.38;9.43;;;20.80;76.70;;;20.81;61.04;94793.47;4986495;28;20209;-79
2021/09/16 01:44:53;;;;;;;9.40;8.48;;;20.80;76.70;;;20.79;61.28;94786.53;5014380;28;20291;-79
2021/09/16 01:47:20;;;;;;;9.27;8.30;;;20.80;76.70;;;20.81;60.95;94791.59;5015263;28;20240;-78
2021/09/16 01:49:47;;;;;;;10.82;8.30;;;20.80;76.70;;;20.79;61.33;94780.41;5014113;28;21075;-79
2021/09/16 01:52:16;;;;;;;9.48;8.10;;;20.70;76.70;;;20.76;61.05;94783.59;5004950;28;20231;-78
2021/09/16 01:54:44;;;;;;;9.32;8.43;;;20.70;76.80;;;20.80;61.14;94790.03;5000929;28;20744;-78
2021/09/16 01:57:11;;;;;;;9.30;8.40;;;20.70;76.80;;;20.79;61.31;94788.41;5013314;28;20212;-78
2021/09/16 01:59:38;;;;;;;9.02;8.13;;;20.70;76.80;;;20.78;61.41;94784.94;5004744;28;20200;-79
2021/09/16 02:02:06;;;;;;;9.93;8.93;;;20.70;76.90;;;20.78;61.40;94792.91;5013095;28;20212;-78
2021/09/16 02:04:33;;;;;;;9.63;8.70;;;20.70;76.80;;;20.78;61.17;94786.81;4996677;28;20613;-80
2021/09/16 02:07:00;;;;;;;10.15;8.45;;;20.70;76.80;;;20.76;61.22;94789.72;5012701;28;20311;-79
2021/09/16 02:09:27;;;;;;;8.10;7.30;;;20.70;76.70;;;20.75;60.82;94785.47;5039937;28;20215;-80
2021/09/16 02:11:54;;;;;;;9.05;8.07;;;20.70;76.80;;;20.76;60.86;94789.72;5031906;28;20699;-79
2021/09/16 02:14:21;;;;;;;9.10;8.00;;;20.70;76.90;;;20.74;61.22;94783.06;5023926;28;20283;-79
2021/09/16 02:16:48;;;;;;;9.00;8.10;;;20.70;77.00;;;20.72;61.12;94780.63;5013045;28;20299;-79
2021/09/16 02:19:16;;;;;;;9.30;7.55;;;20.70;76.90;;;20.70;61.71;94785.41;5023364;28;20200;-79
2021/09/16 02:21:44;;;;;;;10.23;7.93;;;20.70;76.80;;;20.67;61.56;94785.13;5031061;28;20588;-79
2021/09/16 02:24:11;;;;;;;10.98;7.40;;;20.70;76.80;;;20.64;60.94;94786.41;5033997;28;20192;-79
2021/09/16 02:26:38;;;;;;;9.30;7.60;;;20.60;76.80;;;20.59;61.29;94781.88;5034329;28;20208;-78
2021/09/16 02:29:05;;;;;;;8.90;8.07;;;20.60;76.80;;;20.56;61.70;94790.38;5004800;28;20247;-79
2021/09/16 02:31:32;;;;;;;8.50;7.43;;;20.60;76.80;;;20.52;61.78;94785.81;5014417;28;20217;-79
2021/09/16 02:34:00;;;;;;;7.60;6.90;;;20.60;76.90;;;20.50;61.24;94786.09;5022806;28;20239;-80
2021/09/16 02:36:27;;;;;;;7.78;6.97;;;20.50;76.90;;;20.45;61.73;94780.72;5017908;28;20216;-80
2021/09/16 02:38:55;;;;;;;9.13;7.53;;;20.50;76.90;;;20.44;61.49;94790.56;5028364;28;20266;-80
2021/09/16 02:41:22;;;;;;;8.52;7.45;;;20.50;77.10;;;20.41;62.11;94800.94;5033786;28;20216;-80
2021/09/16 02:43:50;;;;;;;10.90;7.97;;;20.40;77.10;;;20.31;62.07;94791.84;5013901;28;20669;-80
2021/09/16 02:46:17;;;;;;;7.97;7.28;;;20.40;77.20;;;;;;4996913;28;20209;-79
2021/09/16 02:48:44;;;;;;;8.20;7.32;;;20.40;77.20;;;20.30;62.03;94792.09;5013570;28;20303;-80
2021/09/16 02:51:11;;;;;;;10.13;7.28;;;20.40;77.30;;;20.29;61.65;94801.13;4996326;28;20236;-79
2021/09/16 02:53:39;;;;;;;7.53;6.82;;;20.40;77.30;;;20.24;62.20;94788.59;5025036;28;20228;-80
2021/09/16 02:56:06;;;;;;;7.80;7.00;;;20.30;77.30;;;20.27;61.77;94795.25;5012881;28;20291;-80
2021/09/16 02:58:33;;;;;;;8.50;7.25;;;20.30;77.40;;;20.26;62.12;94799.78;5012157;28;20552;-81
2021/09/16 03:01:01;;;;;;;8.25;7.45;;;20.30;77.40;;;20.25;61.92;94784.06;4980032;28;20220;-80
2021/09/16 03:03:28;;;;;;;8.02;7.22;;;20.30;77.50;;;20.24;62.42;94788.59;5012527;28;20199;-80
2021/09/16 03:05:56;;;;;;;7.72;7.03;;;20.30;77.50;;;20.21;62.35;94786.41;4996459;28;20288;-80
2021/09/16 03:08:23;;;;;;;8.27;7.47;;;20.20;77.50;;;20.21;62.57;94789.09;4980369;28;20303;-80
2021/09/16 03:10:50;;;;;;;7.70;6.85;;;20.30;77.60;;;20.19;62.21;94785.91;5012513;28;20228;-80
2021/09/16 03:13:17;;;;;;;7.95;7.15;;;20.20;77.60;;;20.13;62.18;94777.06;4996669;28;20676;-80
2021/09/16 03:15:46;;;;;;;7.70;6.93;;;20.20;77.70;;;20.15;62.15;94774.94;5023014;28;20217;-80
2021/09/16 03:18:13;;;;;;;8.13;6.85;;;20.20;77.70;;;20.15;62.46;94774.94;4997180;28;20228;-80
2021/09/16 03:20:40;;;;;;;7.15;6.45;;;20.20;77.70;;;20.17;62.72;94771.22;4983059;28;20238;-80
2021/09/16 03:23:07;;;;;;;7.20;6.50;;;20.20;77.80;;;20.17;62.74;94766.69;4995795;28;20204;-79
2021/09/16 03:25:34;;;;;;;7.43;6.38;;;20.20;77.80;;;20.18;62.21;94768.31;5027981;28;20222;-79
2021/09/16 03:28:01;;;;;;;7.38;6.60;;;20.20;77.90;;;20.19;62.38;94769.91;5012349;28;20243;-80
2021/09/16 03:30:28;;;;;;;8.32;6.75;;;20.20;77.90;;;20.18;62.61;94767.50;5012491;28;20232;-80
2021/09/16 03:32:57;;;;;;;6.80;6.13;;;20.20;77.90;;;20.18;62.49;94767.50;5017447;28;20188;-79
2021/09/16 03:35:25;;;;;;;6.97;6.35;;;20.20;78.00;;;20.17;62.36;94771.22;5022706;28;20241;-79
2021/09/16 03:37:53;;;;;;;7.03;6.28;;;20.20;77.90;;;20.16;62.66;94762.41;4996314;28;20243;-79
2021/09/16 03:40:20;;;;;;;9.30;6.47;;;20.20;77.90;;;20.15;62.48;94763.47;5012314;28;20255;-79
2021/09/16 03:42:50;;;;;;;8.88;6.45;;;20.20;78.00;;;20.14;62.34;94770.69;4973807;28;1155524;-80
2021/09/16 03:45:18;;;;;;;7.90;6.53;;;20.20;78.00;;;20.13;62.39;94763.75;5013193;28;20208;-80
2021/09/16 03:47:46;;;;;;;6.82;6.00;;;20.20;78.10;;;20.11;62.90;94762.41;4983900;28;20203;-78
2021/09/16 03:50:13;;;;;;;7.32;6.03;;;20.10;78.00;;;20.11;62.83;94765.06;5014139;28;20220;-78
2021/09/16 03:52:41;;;;;;;6.63;5.90;;;20.20;78.10;;;20.12;62.71;94764.78;4989601;28;20254;-79
2021/09/16 03:55:09;;;;;;;8.80;5.93;;;20.20;78.10;;;20.10;62.48;94760.78;5012972;28;20706;-79
2021/09/16 03:57:36;;;;;;;7.30;6.05;;;20.10;78.10;;;20.10;62.46;94760.78;5012177;28;20203;-81
2021/09/16 04:00:07;;;;;;;6.95;5.90;;;20.10;78.10;;;20.07;62.78;94761.31;5012685;28;20234;-81
2021/09/16 04:02:36;;;;;;;7.38;6.05;;;20.10;78.20;;;20.05;62.77;94772.19;5003258;28;20204;-81
2021/09/16 04:05:03;;;;;;;9.77;6.53;;;20.10;78.20;;;20.03;62.65;94771.66;5001224;28;20201;-80
2021/09/16 04:07:31;;;;;;;7.53;6.10;;;20.10;78.10;;;20.02;62.71;94770.06;5026584;28;20205;-80
2021/09/16 04:09:58;;;;;;;6.75;5.88;;;20.10;78.20;;;20.00;62.63;94767.63;5011051;28;20319;-81
2021/09/16 04:12:26;;;;;;;7.25;6.55;;;20.10;78.30;;;19.98;63.10;94763.63;5000627;28;20207;-80
2021/09/16 04:14:53;;;;;;;7.78;5.85;;;20.10;78.30;;;19.98;63.10;94771.59;5011895;28;20578;-80
2021/09/16 04:17:20;;;;;;;6.85;6.13;;;20.00;78.20;;;19.96;63.20;94761.22;5012676;28;20240;-80
2021/09/16 04:19:47;;;;;;;7.25;5.97;;;20.10;78.40;;;19.96;62.82;94760.44;5030696;28;20267;-81
2021/09/16 04:22:14;;;;;;;6.95;5.18;;;20.00;78.30;;;19.94;62.96;94762.53;5027355;28;20693;-80
2021/09/16 04:24:43;;;;;;;6.18;5.57;;;20.00;78.30;;;19.95;62.48;94761.47;5013863;28;20224;-79
2021/09/16 04:27:13;;;;;;;6.22;5.63;;;20.00;78.40;;;19.92;62.97;94770.78;4996088;28;20248;-81
2021/09/16 04:29:41;;;;;;;9.38;6.60;;;20.00;78.50;;;19.91;62.75;94769.16;5014296;28;20315;-81
2021/09/16 04:32:09;;;;;;;6.82;5.47;;;20.00;78.40;;;19.88;63.34;94772.31;5011994;28;20630;-81
2021/09/16 04:34:36;;;;;;;6.78;4.85;;;20.00;78.40;;;19.89;63.22;94771.28;5012323;28;20208;-80
2021/09/16 04:37:04;;;;;;;6.90;6.20;;;19.90;78.30;;;19.84;63.23;94773.91;5002116;28;20225;-80
2021/09/16 04:39:32;;;;;;;7.38;5.65;;;19.90;78.40;;;19.83;63.49;94781.09;5013147;28;20197;-80
2021/09/16 04:41:59;;;;;;;6.70;5.70;;;19.90;78.50;;;19.84;63.17;94779.22;5015038;28;20228;-79
2021/09/16 04:44:27;;;;;;;6.65;5.95;;;19.90;78.50;;;19.86;63.13;94773.63;5031438;28;20581;-79
2021/09/16 04:46:54;;;;;;;8.13;6.22;;;19.90;78.60;;;19.86;63.09;94773.63;5005758;28;20703;-79
2021/09/16 04:49:21;;;;;;;7.13;6.15;;;19.90;78.70;;;19.88;63.20;94774.19;4989372;28;20275;-80
2021/09/16 04:51:49;;;;;;;7.55;6.07;;;19.90;78.80;;;19.86;63.37;94774.47;5025148;28;20256;-81
2021/09/16 04:54:16;;;;;;;7.30;5.93;;;19.90;79.70;;;19.89;63.23;94775.81;5012071;28;20192;-81
2021/09/16 04:56:43;;;;;;;6.45;5.85;;;19.90;78.90;;;19.91;63.54;94782.47;4995723;28;20709;-81
2021/09/16 04:59:11;;;;;;;7.60;6.03;;;19.90;78.90;;;19.92;63.57;94781.44;4979356;28;20203;-80
2021/09/16 05:01:38;;;;;;;7.07;6.03;;;19.90;78.90;;;19.94;63.53;94778.50;4997088;28;20216;-80
2021/09/16 05:04:06;;;;;;;7.38;6.20;;;19.90;78.90;;;19.94;63.19;94773.97;5018042;28;20273;-81
2021/09/16 05:06:34;;;;;;;6.75;5.63;;;19.90;78.90;;;19.96;63.54;94771.88;5031328;28;20247;-79
2021/09/16 05:09:01;;;;;;;6.18;5.57;;;19.90;78.90;;;20.00;63.13;94770.28;5010415;28;20205;-80
2021/09/16 05:11:28;;;;;;;6.93;5.95;;;20.00;79.00;;;20.00;63.49;94758.84;4979308;28;20267;-81
2021/09/16 05:13:55;;;;;;;7.55;6.40;;;20.00;79.90;;;20.05;63.45;94764.22;5011626;28;20203;-82
2021/09/16 05:16:22;;;;;;;6.70;5.68;;;20.00;79.10;;;20.04;63.20;94764.47;5016234;28;20311;-80
2021/09/16 05:18:50;;;;;;;7.38;6.63;;;20.00;79.10;;;20.09;63.48;94767.97;5031374;28;20192;-81
2021/09/16 05:21:17;;;;;;;8.23;6.45;;;20.00;79.10;;;20.12;63.49;94761.34;4998600;28;20228;-81
2021/09/16 05:23:44;;;;;;;9.02;6.60;;;20.00;79.10;;;20.12;63.57;94759.47;5014816;28;20196;-81
2021/09/16 05:26:11;;;;;;;10.30;6.63;;;20.10;79.30;;;20.17;63.02;94761.38;5016258;28;20279;-80
2021/09/16 05:28:38;;;;;;;8.73;7.60;;;20.10;79.20;;;20.19;63.16;94774.41;4995503;28;20200;-81
2021/09/16 05:31:06;;;;;;;7.82;6.63;;;20.10;79.10;;;20.19;63.15;94772.56;4994502;28;20590;-80
2021/09/16 05:33:33;;;;;;;9.10;7.45;;;20.10;79.00;;;20.12;63.58;94767.47;5010371;28;20239;-80
2021/09/16 05:36:02;;;;;;;7.05;6.22;;;20.10;79.00;;;20.19;63.37;94779.75;5011317;28;20243;-81
2021/09/16 05:38:30;;;;;;;8.52;6.20;;;20.20;79.10;;;20.21;63.52;94775.78;4994583;28;20203;-79
2021/09/16 05:40:58;;;;;;;8.25;7.05;;;20.10;79.10;;;20.24;63.17;94777.94;5026137;28;20220;-81
2021/09/16 05:43:25;;;;;;;8.85;7.18;;;20.20;79.30;;;20.27;63.54;94774.75;5031008;28;20676;-80
2021/09/16 05:45:52;;;;;;;9.70;7.93;;;20.20;79.40;;;20.32;63.42;94779.31;5010763;28;20327;-80
2021/09/16 05:48:21;;;;;;;8.15;6.88;;;20.20;79.40;;;20.36;63.37;94784.94;5015020;28;20692;-80
2021/09/16 05:50:48;;;;;;;7.97;7.18;;;20.30;79.50;;;20.42;63.49;94786.56;5020130;28;20315;-80
2021/09/16 05:53:15;;;;;;;10.50;7.40;;;20.30;79.50;;;20.49;63.63;94803.13;5038744;28;20295;-79
2021/09/16 05:55:42;;;;;;;10.60;7.85;;;20.30;79.50;;;20.53;63.29;94804.22;5003030;28;20232;-82
2021/09/16 05:58:09;;;;;;;8.15;7.10;;;20.40;80.30;;;20.58;63.77;94798.94;5020539;28;20200;-80
2021/09/16 06:00:36;;;;;;;9.60;8.27;;;20.40;79.50;;;20.61;63.79;94801.06;5029560;28;20212;-80
2021/09/16 06:03:03;;;;;;;10.45;8.48;;;20.50;79.60;;;20.66;63.27;94800.28;5003111;28;20196;-81
2021/09/16 06:05:31;;;;;;;10.35;7.45;;;20.50;79.60;;;20.70;63.93;94795.25;5003854;28;20278;-80
2021/09/16 06:07:58;;;;;;;8.65;7.75;;;20.50;79.70;;;20.79;63.27;94805.19;5021409;28;20196;-81
2021/09/16 06:10:25;;;;;;;10.20;7.88;;;20.60;79.70;;;20.86;63.37;94796.97;5011433;28;20221;-81
2021/09/16 06:12:52;;;;;;;9.50;7.35;;;20.60;79.60;;;20.91;63.52;94791.66;5020154;28;20193;-80
2021/09/16 06:15:19;;;;;;;12.57;8.43;;;20.70;79.80;;;20.98;63.26;94794.06;4996411;28;20235;-81
2021/09/16 06:17:47;;;;;;;9.60;7.72;;;20.70;79.60;;;21.02;63.48;94789.84;5020896;28;20271;-80
2021/09/16 06:20:14;;;;;;;9.63;7.82;;;20.80;79.50;;;21.10;63.39;94785.88;4988381;28;20671;-81
2021/09/16 06:22:46;;;;;;;9.32;7.95;;;20.80;79.60;;;21.13;63.41;94785.34;5019519;28;20288;-80
2021/09/16 06:25:17;;;;;;;9.43;8.07;;;20.80;79.50;;;21.23;62.98;94780.03;5004927;28;20253;-80
2021/09/16 06:27:45;;;;;;;9.75;7.88;;;21.00;79.80;;;21.31;62.86;94783.25;5016765;28;20216;-80
2021/09/16 06:30:12;;;;;;;10.95;8.35;;;21.00;79.60;;;21.38;62.92;94768.59;5037875;28;20220;-80
2021/09/16 06:32:45;;;;;;;12.07;8.30;;;21.10;79.60;;;21.44;63.00;94769.44;5020283;28;20275;-81
2021/09/16 06:35:14;;;;;;;10.25;8.30;;;21.20;79.80;;;21.55;63.00;94772.91;5016687;28;20731;-81
2021/09/16 06:37:43;;;;;;;9.45;7.72;;;21.20;79.50;;;21.61;62.85;94771.88;5025416;28;20281;-81
2021/09/16 06:40:11;;;;;;;9.13;7.28;;;21.30;79.50;;;21.64;62.48;94778.56;5015450;28;20272;-81
2021/09/16 06:42:38;;;;;;;9.18;8.13;;;21.30;79.30;;;21.67;62.80;94788.72;5013510;28;20569;-81
2021/09/16 06:45:08;;;;;;;8.73;7.93;;;21.40;79.20;;;21.66;62.57;94782.56;5024419;28;20668;-81
2021/09/16 06:47:35;;;;;;;9.77;7.85;;;21.40;79.00;;;21.65;62.43;94780.16;5007860;28;20238;-81
2021/09/16 06:50:04;;;;;;;9.80;8.60;;;21.50;79.10;;;21.64;62.39;94779.38;5006309;28;20600;-81
2021/09/16 06:52:31;;;;;;;7.80;7.00;;;21.40;79.20;;;21.73;62.44;94785.78;5016681;28;20291;-81
2021/09/16 06:54:58;;;;;;;8.93;7.95;;;21.50;79.30;;;21.87;63.04;94793.25;5006286;28;20780;-81
2021/09/16 06:57:25;;;;;;;8.50;7.60;;;21.50;79.60;;;21.97;62.67;94785.28;5007919;28;20634;-80
2021/09/16 06:59:52;;;;;;;9.07;8.18;;;21.60;79.90;;;22.14;62.53;94787.69;4989562;28;20207;-80
2021/09/16 07:02:19;;;;;;;9.50;8.45;;;21.70;79.90;;;22.23;62.39;94794.06;5029831;28;20259;-81
2021/09/16 07:04:48;;;;;;;9.02;8.07;;;21.80;79.70;;;22.28;62.15;94779.91;5021159;28;20223;-82
2021/09/16 07:07:15;;;;;;;8.60;7.63;;;21.90;79.50;;;22.34;61.98;94789.53;5006096;28;20330;-81
2021/09/16 07:09:42;;;;;;;9.55;7.30;;;21.90;79.30;;;22.36;62.10;94781.22;5021396;28;20215;-82
2021/09/16 07:12:10;;;;;;;9.38;7.95;;;22.00;79.00;;;22.37;62.05;94777.50;4992739;28;20600;-81
2021/09/16 07:14:37;;;;;;;8.02;7.22;;;22.10;79.00;;;22.45;62.10;94786.84;5021249;28;20252;-81
2021/09/16 07:17:05;;;;;;;8.90;8.02;;;22.10;79.10;;;22.52;62.16;94780.16;4990183;28;20222;-81
2021/09/16 07:19:33;;;;;;;8.18;7.00;;;22.10;79.10;;;22.63;62.17;94780.94;5022423;28;20237;-82
2021/09/16 07:22:00;;;;;;;10.00;8.10;;;22.30;79.20;;;22.69;62.01;94776.38;5014260;28;20215;-81
2021/09/16 07:24:28;;;;;;;9.75;7.97;;;22.30;79.00;;;22.82;61.50;94780.34;5005565;28;20201;-81
2021/09/16 07:26:55;;;;;;;9.50;7.63;;;22.40;79.10;;;22.96;61.21;94780.56;5015023;28;20570;-81
2021/09/16 07:29:24;;;;;;;7.75;6.95;;;22.50;78.90;;;23.09;61.52;94790.69;4999293;28;20646;-79
2021/09/16 07:31:53;;;;;;;9.82;7.97;;;22.60;78.80;;;23.17;61.08;94792.81;5013836;28;20227;-80
2021/09/16 07:34:21;;;;;;;8.65;7.25;;;22.70;78.70;;;23.21;60.62;94786.94;5015691;28;20219;-80
2021/09/16 07:36:49;;;;;;;9.65;7.68;;;22.80;78.30;;;23.21;60.93;94794.97;5030376;28;20386;-79
2021/09/16 07:39:19;;;;;;;9.35;7.57;;;22.80;78.10;;;23.23;60.31;94788.25;5004269;28;20196;-81
2021/09/16 07:41:47;;;;;;;9.25;7.38;;;22.80;77.70;;;23.20;59.96;94788.00;5008499;28;20323;-79
2021/09/16 07:44:16;;;;;;;7.45;6.75;;;22.90;77.50;;;23.19;60.60;94787.19;5020500;28;20295;-81
2021/09/16 07:46:44;;;;;;;9.93;6.85;;;22.90;77.50;;;23.10;59.83;94789.59;5021868;28;20324;-81
2021/09/16 07:49:11;;;;;;;7.50;6.80;;;22.90;77.20;;;23.13;59.61;94801.63;5013577;28;20275;-80
2021/09/16 07:51:38;;;;;;;7.85;6.40;;;22.90;76.70;;;23.10;59.72;94796.84;4996064;28;20246;-79
2021/09/16 07:54:05;;;;;;;6.57;5.97;;;22.90;76.80;;;23.10;59.64;94805.66;5007617;28;20259;-80
2021/09/16 07:56:32;;;;;;;6.40;5.78;;;22.90;76.90;;;23.14;59.79;94803.25;5005390;28;20232;-80
2021/09/16 07:59:00;;;;;;;6.70;6.05;;;23.00;76.90;;;23.18;59.37;94820.41;5023714;28;20205;-80
2021/09/16 08:01:27;;;;;;;7.43;6.60;;;23.00;76.90;;;23.18;59.35;94807.03;5019507;28;20307;-80
2021/09/16 08:03:55;;;;;;;7.43;6.18;;;23.00;76.60;;;23.24;59.40;94810.44;5007211;28;20221;-79
2021/09/16 08:06:22;;;;;;;6.60;5.97;;;23.00;76.80;;;23.33;59.21;94808.81;5007512;28;20204;-80
2021/09/16 08:08:50;;;;;;;7.30;6.35;;;23.00;76.90;;;23.41;59.01;94810.09;5022039;28;20670;-80
2021/09/16 08:11:17;;;;;;;6.55;5.95;;;23.10;76.90;;;23.47;59.10;94814.34;5038745;28;20322;-79
2021/09/16 08:13:44;;;;;;;7.00;6.30;;;23.10;76.70;;;23.55;58.64;94802.28;4988468;28;20205;-79
2021/09/16 08:16:11;;;;;;;6.22;5.60;;;23.20;76.30;;;23.63;58.48;94807.84;5005834;28;20321;-80
2021/09/16 08:18:39;;;;;;;6.72;5.70;;;23.20;76.30;;;23.72;58.32;94813.41;5012629;28;20275;-80
2021/09/16 08:21:06;;;;;;;6.13;5.53;;;23.30;76.30;;;23.83;58.44;94808.81;5022169;28;20319;-79
2021/09/16 08:23:33;;;;;;;6.07;5.22;;;23.30;76.50;;;23.94;58.44;94796.97;5012743;28;20278;-80
2021/09/16 08:26:00;;;;;;;5.45;4.95;;;23.40;76.60;;;24.08;58.71;94797.13;5030842;28;20216;-80
2021/09/16 08:28:27;;;;;;;5.60;5.00;;;23.50;76.80;;;24.15;58.08;94794.13;5020561;28;20197;-80
2021/09/16 08:30:54;;;;;;;5.60;5.10;;;23.60;76.30;;;24.20;57.29;94801.31;5022426;28;20660;-80
2021/09/16 08:33:22;;;;;;;5.10;4.60;;;23.70;75.90;;;24.22;56.86;94794.59;5016893;28;20200;-79
2021/09/16 08:35:50;;;;;;;5.28;4.75;;;23.70;75.50;;;24.20;57.06;94793.28;4988418;28;20209;-80
2021/09/16 08:38:17;;;;;;;5.35;4.72;;;23.80;75.60;;;24.20;56.63;94787.94;5006339;28;20270;-79
2021/09/16 08:40:45;;;;;;;4.50;4.10;;;23.80;75.20;;;24.20;56.99;94786.03;5020897;28;20209;-80
2021/09/16 08:43:13;;;;;;;4.85;4.28;;;23.80;75.00;;;24.20;55.93;94793.28;5009663;28;20259;-79
2021/09/16 08:45:41;;;;;;;4.15;3.72;;;23.80;74.40;;;24.22;56.52;94781.19;5006305;28;20212;-80
2021/09/16 08:48:08;;;;;;;4.65;4.15;;;23.80;74.70;;;24.25;56.50;94777.16;5021161;28;20196;-80
2021/09/16 08:50:35;;;;;;;4.28;3.88;;;23.90;74.60;;;24.32;56.22;94785.66;4995958;28;20316;-79
2021/09/16 08:53:03;;;;;;;4.18;3.75;;;23.90;74.70;;;24.39;56.46;94782.66;5028820;28;20234;-80
2021/09/16 08:55:30;;;;;;;5.22;4.10;;;23.90;74.70;;;24.42;55.52;94784.78;5013024;28;20240;-79
2021/09/16 08:58:03;;;;;;;7.20;4.13;;;24.00;74.00;;;24.37;55.37;94782.94;5028134;28;20355;-79
2021/09/16 09:00:33;;;;;;;4.68;3.40;;;24.00;73.90;;;24.40;55.55;94776.19;5019309;28;20223;-80
2021/09/16 09:03:00;;;;;;;4.07;3.53;;;24.10;73.80;;;24.42;55.17;94793.59;5021583;28;20203;-80
2021/09/16 09:05:29;;;;;;;3.58;3.28;;;24.10;73.70;;;24.53;55.82;94791.63;5025874;28;20721;-79
2021/09/16 09:08:00;;;;;;;4.68;3.70;;;24.10;74.30;;;24.62;55.35;94789.94;4995651;28;20207;-80
2021/09/16 09:10:45;;;;;;;4.18;3.72;;;24.10;73.80;;;24.76;55.61;94786.59;4995405;28;20229;-80
2021/09/16 09:13:21;;;;;;;5.03;3.35;;;24.20;73.80;;;24.85;54.70;94790.28;5014327;28;20247;-80
2021/09/16 09:16:06;;;;;;;5.45;3.30;;;24.30;73.20;;;24.92;55.25;94779.97;5010450;28;20221;-79
2021/09/16 09:19:13;;;;;;;4.85;3.40;;;24.40;73.80;;;24.99;55.23;94789.59;4992750;28;20200;-80
2021/09/16 09:21:40;;;;;;;4.80;3.38;;;24.50;73.80;;;25.00;54.70;94780.44;5010070;28;20209;-80
2021/09/16 09:24:07;;;;;;;5.20;3.72;;;24.60;73.30;;;25.07;54.59;94778.19;4992995;28;20213;-81
2021/09/16 09:26:37;;;;;;;3.42;3.13;;;24.60;73.20;;;25.12;54.69;94786.22;4993207;28;20319;-81
2021/09/16 09:29:07;;;;;;;3.00;2.80;;;24.70;73.30;;;25.19;54.91;94789.31;5009322;28;20209;-80
2021/09/16 09:32:07;;;;;;;4.00;3.20;;;24.70;73.00;;;25.26;54.83;94778.25;5010028;28;20238;-81
2021/09/16 09:34:38;;;;;;;3.33;3.03;;;24.80;73.00;;;25.32;54.73;94778.97;5014008;28;20205;-81
2021/09/16 09:37:13;;;;;;;3.60;3.15;;;24.90;73.10;;;25.41;54.73;94782.63;5031257;28;20255;-81
2021/09/16 09:39:44;;;;;;;3.30;2.97;;;24.90;72.70;;;25.47;54.74;94783.38;5031121;28;20279;-81
2021/09/16 09:42:29;;;;;;;3.30;3.00;;;25.00;72.80;;;25.54;54.86;94787.28;5010692;28;20253;-80
2021/09/16 09:45:07;;;;;;;3.75;3.20;;;25.00;72.90;;;25.59;54.64;94782.94;5011366;28;20221;-80
2021/09/16 09:47:44;;;;;;;3.88;3.13;;;25.10;72.60;;;25.67;54.69;94779.59;4995107;28;20264;-80
2021/09/16 09:50:20;;;;;;;4.82;3.45;;;25.20;72.60;;;25.70;53.98;94787.06;5009931;28;20791;-80
2021/09/16 09:52:48;;;;;;;3.92;3.53;;;25.30;72.30;;;25.72;53.99;94782.22;5003213;28;20237;-80
2021/09/16 09:55:20;;;;;;;3.72;3.42;;;25.30;72.10;;;25.74;53.68;94782.72;5011028;28;20203;-80
2021/09/16 09:58:00;;;;;;;4.00;3.63;;;25.30;71.80;;;25.74;53.27;94782.72;5011307;28;20261;-81
2021/09/16 10:00:27;;;;;;;4.05;3.55;;;25.40;71.80;;;25.75;53.83;94787.00;5011265;28;20702;-80
2021/09/16 10:02:55;;;;;;;3.38;3.08;;;25.40;71.80;;;25.83;53.15;94790.91;5011138;28;20271;-80
2021/09/16 10:05:36;;;;;;;4.40;3.88;;;25.50;71.70;;;25.82;52.16;94787.44;5019369;28;20224;-80
2021/09/16 10:08:09;;;;;;;4.05;3.65;;;25.50;70.90;;;25.81;51.63;94787.72;5011706;28;20195;-79
2021/09/16 10:10:49;;;;;;;4.15;3.20;;;25.50;70.60;;;25.79;51.27;94790.69;5026877;28;20596;-80
2021/09/16 10:13:18;;;;;;;4.30;3.80;;;25.50;70.00;;;25.81;51.08;94787.72;5025018;28;20221;-80
2021/09/16 10:15:51;;;;;;;5.30;3.70;;;25.50;69.90;;;25.80;51.60;94783.44;5014741;28;20212;-81
2021/09/16 10:18:19;;;;;;;3.45;3.15;;;25.50;70.00;;;25.91;51.83;94781.41;5016753;28;20234;-80
2021/09/16 10:20:48;;;;;;;3.67;3.25;;;25.60;70.20;;;25.99;50.98;94789.59;5017915;28;20253;-79
2021/09/16 10:23:16;;;;;;;3.95;3.47;;;25.60;70.20;;;26.16;51.93;94774.84;5016041;28;20194;-80